createdAt,value
2018-11-27T00:00:34.021Z,7.40
2018-11-27T00:03:04.185Z,7.40
2018-11-27T00:05:32.849Z,7.40
2018-11-27T00:08:00.874Z,7.40
2018-11-27T00:10:29.799Z,7.40
2018-11-27T00:12:57.839Z,7.40
2018-11-27T00:15:25.810Z,7.40
2018-11-27T00:17:53.752Z,7.40
2018-11-27T00:20:21.729Z,7.40
2018-11-27T00:22:49.771Z,7.40
2018-11-27T00:25:18.347Z,7.40
2018-11-27T00:27:46.270Z,7.40
2018-11-27T00:30:16.312Z,7.40
2018-11-27T00:32:44.335Z,7.40
2018-11-27T00:35:13.853Z,7.30
2018-11-27T00:37:41.862Z,7.40
2018-11-27T00:40:12.516Z,7.30
2018-11-27T00:42:40.628Z,7.30
2018-11-27T00:45:10.957Z,7.30
2018-11-27T00:47:39.005Z,7.30
2018-11-27T00:50:11.413Z,7.30
2018-11-27T00:52:39.541Z,7.30
2018-11-27T00:55:09.213Z,7.30
2018-11-27T00:57:37.382Z,7.20
2018-11-27T01:00:10.621Z,7.20
2018-11-27T01:02:38.846Z,7.20
2018-11-27T01:05:08.531Z,7.20
2018-11-27T01:07:36.484Z,7.20
2018-11-27T01:10:06.340Z,7.20
2018-11-27T01:12:34.281Z,7.20
2018-11-27T01:15:02.179Z,7.20
2018-11-27T01:17:30.091Z,7.30
2018-11-27T01:19:57.981Z,7.30
2018-11-27T01:22:25.924Z,7.30
2018-11-27T01:24:53.853Z,7.30
2018-11-27T01:27:21.791Z,7.30
2018-11-27T01:29:49.737Z,7.40
2018-11-27T01:32:18.585Z,7.40
2018-11-27T01:34:46.497Z,7.40
2018-11-27T01:37:14.461Z,7.40
2018-11-27T01:39:42.368Z,7.40
2018-11-27T01:42:10.303Z,7.30
2018-11-27T01:44:38.247Z,7.30
2018-11-27T01:47:06.623Z,7.30
2018-11-27T01:49:34.525Z,7.30
2018-11-27T01:52:02.442Z,7.40
2018-11-27T01:54:30.350Z,7.40
2018-11-27T01:56:58.266Z,7.40
2018-11-27T01:59:26.442Z,7.40
2018-11-27T02:01:54.357Z,7.30
2018-11-27T02:04:22.264Z,7.30
2018-11-27T02:06:50.233Z,7.30
2018-11-27T02:09:18.154Z,7.30
2018-11-27T02:11:46.085Z,7.30
2018-11-27T02:14:14.046Z,7.30
2018-11-27T02:16:42.016Z,7.30
2018-11-27T02:19:09.872Z,7.30
2018-11-27T02:21:38.361Z,7.30
2018-11-27T02:24:06.630Z,7.30
2018-11-27T02:26:34.562Z,7.30
2018-11-27T02:29:02.502Z,7.20
2018-11-27T02:31:30.457Z,7.20
2018-11-27T02:33:58.403Z,7.20
2018-11-27T02:36:26.319Z,7.20
2018-11-27T02:39:49.158Z,7.20
2018-11-27T02:42:17.103Z,7.20
2018-11-27T02:44:45.107Z,7.20
2018-11-27T02:47:13.041Z,7.10
2018-11-27T02:49:40.950Z,7.10
2018-11-27T02:52:08.856Z,7.10
2018-11-27T02:54:36.816Z,7.20
2018-11-27T02:57:04.772Z,7.00
2018-11-27T02:59:32.704Z,7.10
2018-11-27T03:02:00.620Z,7.10
2018-11-27T03:04:28.585Z,7.10
2018-11-27T03:06:56.507Z,7.10
2018-11-27T03:09:24.487Z,7.00
2018-11-27T03:11:52.404Z,7.10
2018-11-27T03:14:20.327Z,7.10
2018-11-27T03:16:48.243Z,7.10
2018-11-27T03:19:16.176Z,7.10
2018-11-27T03:21:44.080Z,7.10
2018-11-27T03:24:11.985Z,7.10
2018-11-27T03:26:40.180Z,7.10
2018-11-27T03:29:08.121Z,7.10
2018-11-27T03:31:36.043Z,7.10
2018-11-27T03:34:04.019Z,7.10
2018-11-27T03:36:31.965Z,7.10
2018-11-27T03:38:59.889Z,7.10
2018-11-27T03:41:27.816Z,7.10
2018-11-27T03:43:55.765Z,7.10
2018-11-27T03:46:23.656Z,7.10
2018-11-27T03:48:51.578Z,7.00
2018-11-27T03:51:19.491Z,7.00
2018-11-27T03:53:47.433Z,7.00
2018-11-27T03:56:15.382Z,7.00
2018-11-27T03:58:43.343Z,6.90
2018-11-27T04:01:11.352Z,6.80
2018-11-27T04:03:39.286Z,6.70
2018-11-27T04:06:07.475Z,6.60
2018-11-27T04:08:35.433Z,6.60
2018-11-27T04:11:03.374Z,6.60
2018-11-27T04:13:31.529Z,6.60
2018-11-27T04:15:59.475Z,6.50
2018-11-27T04:18:27.377Z,6.50
2018-11-27T04:20:55.327Z,6.60
2018-11-27T04:23:23.243Z,6.60
2018-11-27T04:25:51.170Z,6.60
2018-11-27T04:28:19.074Z,6.60
2018-11-27T04:30:46.999Z,6.70
2018-11-27T04:33:14.956Z,6.50
2018-11-27T04:35:42.872Z,6.60
2018-11-27T04:38:11.060Z,6.70
2018-11-27T04:40:38.948Z,6.70
2018-11-27T04:43:06.878Z,6.60
2018-11-27T04:45:34.873Z,6.60
2018-11-27T04:48:02.812Z,6.60
2018-11-27T04:50:30.794Z,6.60
2018-11-27T04:52:58.758Z,6.60
2018-11-27T04:55:26.693Z,6.60
2018-11-27T04:57:54.670Z,6.60
2018-11-27T05:00:24.522Z,6.60
2018-11-27T05:02:52.485Z,6.70
2018-11-27T05:05:20.420Z,6.70
2018-11-27T05:07:48.437Z,6.80
2018-11-27T05:10:18.056Z,6.80
2018-11-27T05:12:45.998Z,6.90
2018-11-27T05:15:15.124Z,6.90
2018-11-27T05:17:47.984Z,6.80
2018-11-27T05:20:12.047Z,6.70
2018-11-27T05:22:40.055Z,6.70
2018-11-27T05:25:10.586Z,6.60
2018-11-27T05:27:38.790Z,6.50
2018-11-27T05:30:13.092Z,6.50
2018-11-27T05:32:41.119Z,6.40
2018-11-27T05:35:10.500Z,6.40
2018-11-27T05:37:38.614Z,6.50
2018-11-27T05:40:09.622Z,6.50
2018-11-27T05:42:37.563Z,6.50
2018-11-27T05:45:08.471Z,6.60
2018-11-27T05:47:36.385Z,6.60
2018-11-27T05:50:05.052Z,6.60
2018-11-27T05:52:32.999Z,6.60
2018-11-27T05:55:00.961Z,6.70
2018-11-27T05:57:28.902Z,6.60
2018-11-27T05:59:56.826Z,6.70
2018-11-27T06:02:24.837Z,6.70
2018-11-27T06:04:52.826Z,6.70
2018-11-27T06:07:20.742Z,6.70
2018-11-27T06:09:48.637Z,6.70
2018-11-27T06:12:16.595Z,6.70
2018-11-27T06:14:44.484Z,6.70
2018-11-27T06:17:12.444Z,6.70
2018-11-27T06:19:40.371Z,6.70
2018-11-27T06:22:08.298Z,6.60
2018-11-27T06:24:36.290Z,6.60
2018-11-27T06:27:04.260Z,6.60
2018-11-27T06:29:32.199Z,6.60
2018-11-27T06:32:00.146Z,6.60
2018-11-27T06:34:28.076Z,6.70
2018-11-27T06:36:56.004Z,6.70
2018-11-27T06:39:23.935Z,6.70
2018-11-27T06:41:51.844Z,6.70
2018-11-27T06:44:19.738Z,6.70
2018-11-27T06:46:47.691Z,6.70
2018-11-27T06:49:15.681Z,6.70
2018-11-27T06:51:43.614Z,6.80
2018-11-27T06:54:11.523Z,6.70
2018-11-27T06:56:39.447Z,6.70
2018-11-27T06:59:07.374Z,6.70
2018-11-27T07:01:35.348Z,6.70
2018-11-27T07:04:03.322Z,6.70
2018-11-27T07:06:31.372Z,6.70
2018-11-27T07:08:59.290Z,6.70
2018-11-27T07:11:27.252Z,6.70
2018-11-27T07:13:55.186Z,6.70
2018-11-27T07:16:23.142Z,6.70
2018-11-27T07:18:51.083Z,6.70
2018-11-27T07:21:19.035Z,6.70
2018-11-27T07:23:46.982Z,6.70
2018-11-27T07:26:14.902Z,6.60
2018-11-27T07:28:42.847Z,6.60
2018-11-27T07:31:10.755Z,6.60
2018-11-27T07:33:38.698Z,6.70
2018-11-27T07:36:06.590Z,6.70
2018-11-27T07:38:34.533Z,6.70
2018-11-27T07:41:02.512Z,6.70
2018-11-27T07:43:30.458Z,6.70
2018-11-27T07:45:58.371Z,6.70
2018-11-27T07:48:26.255Z,6.70
2018-11-27T07:50:54.218Z,6.70
2018-11-27T07:53:22.136Z,6.70
2018-11-27T07:55:50.058Z,6.60
2018-11-27T07:58:17.984Z,6.70
2018-11-27T08:00:45.978Z,6.70
2018-11-27T08:03:13.913Z,6.70
2018-11-27T08:05:41.960Z,6.70
2018-11-27T08:08:14.644Z,6.70
2018-11-27T08:10:43.581Z,6.60
2018-11-27T08:13:11.818Z,6.50
2018-11-27T08:15:39.760Z,6.50
2018-11-27T08:18:08.325Z,6.40
2018-11-27T08:20:36.454Z,6.40
2018-11-27T08:23:04.807Z,6.40
2018-11-27T08:25:32.774Z,6.50
2018-11-27T08:28:00.686Z,6.50
2018-11-27T08:30:28.633Z,6.50
2018-11-27T08:32:57.012Z,6.40
2018-11-27T08:35:27.372Z,6.40
2018-11-27T08:37:56.471Z,6.40
2018-11-27T08:40:25.359Z,6.40
2018-11-27T08:42:53.371Z,6.40
2018-11-27T08:45:22.303Z,6.50
2018-11-27T08:47:51.556Z,6.50
2018-11-27T08:50:20.857Z,6.60
2018-11-27T08:52:51.010Z,6.60
2018-11-27T08:55:20.763Z,6.60
2018-11-27T08:57:48.843Z,6.50
2018-11-27T09:00:17.862Z,6.60
2018-11-27T09:02:46.214Z,6.60
2018-11-27T09:05:14.457Z,6.70
2018-11-27T09:07:42.876Z,6.70
2018-11-27T09:10:13.555Z,6.80
2018-11-27T09:12:41.492Z,6.80
2018-11-27T09:15:11.007Z,6.70
2018-11-27T09:17:38.987Z,6.70
2018-11-27T09:20:09.686Z,6.60
2018-11-27T09:22:37.884Z,6.60
2018-11-27T09:25:08.335Z,6.50
2018-11-27T09:27:36.274Z,6.40
2018-11-27T09:30:08.268Z,6.50
2018-11-27T09:32:36.180Z,6.60
2018-11-27T09:35:04.344Z,6.60
2018-11-27T09:37:32.302Z,6.60
2018-11-27T09:40:00.215Z,6.50
2018-11-27T09:42:28.149Z,6.50
2018-11-27T09:44:56.101Z,6.50
2018-11-27T09:47:24.025Z,6.50
2018-11-27T09:49:51.959Z,6.60
2018-11-27T09:52:19.883Z,6.50
2018-11-27T09:54:47.832Z,6.50
2018-11-27T09:57:15.799Z,6.60
2018-11-27T09:59:43.691Z,6.50
2018-11-27T10:02:11.600Z,6.50
2018-11-27T10:04:39.546Z,6.50
2018-11-27T10:07:07.464Z,6.50
2018-11-27T10:09:35.415Z,6.50
2018-11-27T10:12:03.324Z,6.60
2018-11-27T10:14:31.275Z,6.60
2018-11-27T10:16:59.393Z,6.60
2018-11-27T10:19:28.226Z,6.70
2018-11-27T10:21:55.254Z,6.60
2018-11-27T10:24:23.204Z,6.60
2018-11-27T10:26:51.089Z,6.60
2018-11-27T10:29:19.047Z,6.60
2018-11-27T10:31:46.964Z,6.60
2018-11-27T10:34:14.886Z,6.60
2018-11-27T10:36:43.568Z,6.60
2018-11-27T10:39:10.778Z,6.70
2018-11-27T10:41:38.755Z,6.70
2018-11-27T10:44:06.680Z,6.70
2018-11-27T10:46:34.626Z,6.60
2018-11-27T10:49:02.548Z,6.60
2018-11-27T10:51:30.476Z,6.70
2018-11-27T10:53:58.385Z,6.70
2018-11-27T10:56:26.303Z,6.60
2018-11-27T10:58:54.235Z,6.60
2018-11-27T11:01:41.470Z,6.70
2018-11-27T11:04:09.393Z,6.70
2018-11-27T11:06:37.355Z,6.80
2018-11-27T11:09:07.789Z,6.90
2018-11-27T11:11:35.955Z,7.10
2018-11-27T11:14:04.170Z,7.20
2018-11-27T11:16:32.086Z,7.30
2018-11-27T11:19:00.010Z,7.40
2018-11-27T11:21:27.985Z,7.40
2018-11-27T11:23:55.947Z,7.40
2018-11-27T11:26:24.141Z,7.50
2018-11-27T11:28:52.044Z,7.50
2018-11-27T11:31:20.000Z,7.50
2018-11-27T11:33:47.995Z,7.50
2018-11-27T11:36:15.894Z,7.40
2018-11-27T11:38:43.840Z,7.50
2018-11-27T11:41:11.791Z,7.50
2018-11-27T11:43:39.708Z,7.40
2018-11-27T11:46:07.704Z,7.30
2018-11-27T11:48:35.608Z,7.50
2018-11-27T11:51:03.547Z,7.50
2018-11-27T11:53:31.540Z,7.40
2018-11-27T11:55:59.496Z,7.40
2018-11-27T11:58:27.389Z,7.50
2018-11-27T12:00:56.072Z,7.60
2018-11-27T12:03:23.968Z,7.60
2018-11-27T12:05:51.934Z,7.60
2018-11-27T12:08:19.860Z,7.50
2018-11-27T12:10:47.835Z,7.60
2018-11-27T12:13:15.746Z,7.70
2018-11-27T12:15:43.684Z,7.50
2018-11-27T12:18:11.608Z,7.50
2018-11-27T12:20:40.331Z,7.50
2018-11-27T12:23:09.794Z,7.50
2018-11-27T12:25:38.315Z,7.50
2018-11-27T12:28:07.703Z,7.50
2018-11-27T12:30:35.699Z,7.50
2018-11-27T12:33:03.975Z,7.50
2018-11-27T12:35:31.883Z,7.60
2018-11-27T12:37:59.837Z,7.60
2018-11-27T12:40:28.546Z,7.80
2018-11-27T12:42:57.008Z,7.80
2018-11-27T12:45:26.447Z,7.90
2018-11-27T12:47:55.041Z,7.90
2018-11-27T12:50:26.735Z,7.90
2018-11-27T12:52:54.674Z,8.00
2018-11-27T12:55:23.519Z,8.20
2018-11-27T12:57:51.483Z,8.10
2018-11-27T13:00:21.268Z,8.20
2018-11-27T13:02:49.234Z,8.20
2018-11-27T13:05:20.211Z,8.20
2018-11-27T13:07:48.298Z,8.20
2018-11-27T13:10:16.760Z,8.30
2018-11-27T13:12:45.837Z,8.30
2018-11-27T13:15:14.914Z,8.30
2018-11-27T13:17:46.077Z,8.30
2018-11-27T13:20:15.206Z,8.40
2018-11-27T13:22:43.928Z,8.30
2018-11-27T13:25:13.535Z,8.30
2018-11-27T13:27:41.507Z,8.30
2018-11-27T13:30:12.703Z,8.30
2018-11-27T13:32:40.635Z,8.40
2018-11-27T13:35:10.445Z,8.30
2018-11-27T13:37:38.714Z,8.30
2018-11-27T13:40:08.083Z,8.40
2018-11-27T13:42:36.052Z,8.20
2018-11-27T13:45:04.869Z,8.10
2018-11-27T13:47:32.793Z,8.10
2018-11-27T13:50:00.698Z,8.00
2018-11-27T13:52:28.657Z,8.10
2018-11-27T13:54:56.604Z,8.10
2018-11-27T13:57:24.511Z,8.10
2018-11-27T13:59:52.419Z,8.00
2018-11-27T14:02:20.333Z,8.00
2018-11-27T14:04:48.262Z,7.90
2018-11-27T14:07:16.195Z,7.90
2018-11-27T14:09:45.256Z,7.90
2018-11-27T14:12:12.208Z,7.90
2018-11-27T14:14:40.988Z,7.90
2018-11-27T14:17:08.964Z,7.90
2018-11-27T14:19:37.028Z,8.00
2018-11-27T14:22:05.668Z,7.90
2018-11-27T14:24:33.591Z,7.90
2018-11-27T14:27:01.729Z,8.00
2018-11-27T14:29:29.695Z,8.10
2018-11-27T14:31:57.637Z,8.10
2018-11-27T14:34:25.571Z,8.00
2018-11-27T14:36:53.535Z,8.00
2018-11-27T14:39:21.439Z,7.90
2018-11-27T14:41:49.618Z,7.90
2018-11-27T14:44:17.551Z,7.80
2018-11-27T14:46:45.501Z,7.90
2018-11-27T14:49:13.434Z,7.80
2018-11-27T14:51:41.552Z,7.90
2018-11-27T14:54:09.473Z,7.90
2018-11-27T14:56:37.379Z,7.90
2018-11-27T14:59:05.709Z,7.90
2018-11-27T15:01:33.920Z,7.90
2018-11-27T15:04:01.831Z,7.80
2018-11-27T15:06:29.728Z,7.80
2018-11-27T15:08:57.705Z,7.80
2018-11-27T15:11:25.715Z,7.80
2018-11-27T15:13:53.593Z,7.80
2018-11-27T15:16:21.577Z,7.70
2018-11-27T15:18:49.519Z,7.70
2018-11-27T15:21:17.590Z,7.60
2018-11-27T15:23:45.533Z,7.60
2018-11-27T15:26:13.477Z,7.40
2018-11-27T15:28:41.428Z,7.40
2018-11-27T15:31:09.370Z,7.40
2018-11-27T15:33:37.648Z,7.30
2018-11-27T15:36:05.822Z,7.30
2018-11-27T15:38:34.039Z,7.30
2018-11-27T15:41:01.979Z,7.30
2018-11-27T15:43:30.019Z,7.30
2018-11-27T15:45:58.008Z,7.30
2018-11-27T15:48:25.935Z,7.30
2018-11-27T15:50:53.857Z,7.40
2018-11-27T15:53:21.852Z,7.30
2018-11-27T15:55:49.764Z,7.30
2018-11-27T15:58:17.791Z,7.20
2018-11-27T16:00:45.730Z,7.10
2018-11-27T16:03:13.678Z,7.10
2018-11-27T16:05:43.584Z,7.00
2018-11-27T16:08:11.737Z,6.90
2018-11-27T16:10:39.630Z,6.80
2018-11-27T16:13:07.722Z,6.70
2018-11-27T16:15:36.371Z,6.60
2018-11-27T16:18:04.379Z,6.60
2018-11-27T16:20:32.333Z,6.50
2018-11-27T16:23:00.292Z,6.50
2018-11-27T16:25:28.287Z,6.50
2018-11-27T16:27:56.272Z,6.50
2018-11-27T16:30:28.685Z,6.40
2018-11-27T16:32:56.685Z,6.40
2018-11-27T16:35:24.627Z,6.40
2018-11-27T16:37:54.023Z,6.30
2018-11-27T16:40:25.845Z,6.40
2018-11-27T16:42:53.795Z,6.30
2018-11-27T16:45:22.839Z,6.30
2018-11-27T16:47:51.090Z,6.40
2018-11-27T16:50:19.331Z,6.40
2018-11-27T16:52:47.625Z,6.30
2018-11-27T16:55:16.717Z,6.20
2018-11-27T16:57:44.671Z,6.20
2018-11-27T17:00:18.015Z,6.20
2018-11-27T17:02:46.418Z,6.10
2018-11-27T17:05:14.477Z,6.10
2018-11-27T17:07:42.435Z,6.00
2018-11-27T17:10:13.523Z,6.00
2018-11-27T17:12:41.598Z,5.90
2018-11-27T17:15:11.241Z,5.90
2018-11-27T17:17:39.330Z,5.90
2018-11-27T17:20:17.199Z,5.90
2018-11-27T17:22:45.145Z,5.90
2018-11-27T17:25:13.090Z,5.80
2018-11-27T17:27:41.960Z,5.80
2018-11-27T17:30:16.372Z,5.80
2018-11-27T17:32:44.315Z,5.80
2018-11-27T17:35:12.300Z,5.80
2018-11-27T17:37:40.233Z,5.80
2018-11-27T17:40:09.983Z,5.80
2018-11-27T17:42:38.123Z,5.80
2018-11-27T17:45:10.558Z,5.80
2018-11-27T17:47:38.475Z,5.80
2018-11-27T17:50:08.506Z,5.80
2018-11-27T17:52:36.436Z,5.90
2018-11-27T17:55:05.509Z,5.90
2018-11-27T17:57:33.416Z,5.90
2018-11-27T18:00:01.336Z,6.00
2018-11-27T18:02:29.288Z,6.00
2018-11-27T18:04:57.842Z,6.10
2018-11-27T18:07:25.750Z,6.10
2018-11-27T18:09:53.714Z,6.20
2018-11-27T18:12:21.774Z,6.20
2018-11-27T18:14:49.772Z,6.20
2018-11-27T18:17:17.845Z,6.20
2018-11-27T18:19:45.786Z,6.20
2018-11-27T18:22:13.708Z,6.30
2018-11-27T18:24:41.626Z,6.30
2018-11-27T18:27:09.608Z,6.30
2018-11-27T18:29:37.650Z,6.30
2018-11-27T18:32:05.615Z,6.30
2018-11-27T18:34:33.570Z,6.40
2018-11-27T18:37:01.730Z,6.30
2018-11-27T18:39:29.652Z,6.40
2018-11-27T18:41:57.573Z,6.40
2018-11-27T18:44:25.512Z,6.40
2018-11-27T18:46:53.500Z,6.40
2018-11-27T18:49:21.508Z,6.40
2018-11-27T18:51:49.686Z,6.40
2018-11-27T18:54:17.614Z,6.40
2018-11-27T18:56:45.572Z,6.50
2018-11-27T18:59:13.738Z,6.50
2018-11-27T19:01:41.722Z,6.50
2018-11-27T19:04:09.665Z,6.50
2018-11-27T19:06:37.584Z,6.50
2018-11-27T19:09:08.410Z,6.60
2018-11-27T19:11:36.820Z,6.50
2018-11-27T19:14:05.180Z,6.50
2018-11-27T19:16:33.259Z,6.50
2018-11-27T19:19:01.192Z,6.50
2018-11-27T19:21:29.184Z,6.50
2018-11-27T19:23:57.755Z,6.50
2018-11-27T19:26:25.090Z,6.50
2018-11-27T19:28:53.061Z,6.50
2018-11-27T19:31:20.974Z,6.50
2018-11-27T19:33:49.184Z,6.50
2018-11-27T19:36:17.186Z,6.50
2018-11-27T19:38:45.146Z,6.50
2018-11-27T19:41:13.105Z,6.60
2018-11-27T19:43:41.034Z,6.50
2018-11-27T19:46:08.998Z,6.60
2018-11-27T19:48:37.210Z,6.60
2018-11-27T19:51:05.600Z,6.50
2018-11-27T19:53:33.566Z,6.60
2018-11-27T19:56:01.546Z,6.50
2018-11-27T19:58:29.497Z,6.60
2018-11-27T20:00:57.497Z,6.60
2018-11-27T20:03:25.439Z,6.60
2018-11-27T20:05:53.354Z,6.60
2018-11-27T20:08:21.340Z,6.60
2018-11-27T20:10:49.284Z,6.60
2018-11-27T20:13:17.510Z,6.60
2018-11-27T20:15:47.086Z,6.60
2018-11-27T20:18:15.036Z,6.60
2018-11-27T20:20:42.976Z,6.60
2018-11-27T20:23:10.935Z,6.60
2018-11-27T20:25:38.878Z,6.60
2018-11-27T20:28:08.190Z,6.70
2018-11-27T20:30:37.145Z,6.60
2018-11-27T20:33:05.791Z,6.60
2018-11-27T20:35:33.748Z,6.60
2018-11-27T20:38:03.246Z,6.60
2018-11-27T20:40:31.282Z,6.60
2018-11-27T20:42:59.545Z,6.60
2018-11-27T20:45:27.610Z,6.60
2018-11-27T20:47:59.927Z,6.60
2018-11-27T20:50:27.888Z,6.60
2018-11-27T20:52:55.843Z,6.60
2018-11-27T20:55:24.534Z,6.60
2018-11-27T20:57:56.213Z,6.70
2018-11-27T21:00:26.138Z,6.60
2018-11-27T21:02:56.068Z,6.60
2018-11-27T21:05:24.048Z,6.60
2018-11-27T21:07:52.048Z,6.60
2018-11-27T21:10:20.028Z,6.60
2018-11-27T21:12:48.114Z,6.50
2018-11-27T21:15:17.373Z,6.60
2018-11-27T21:17:45.310Z,6.50
2018-11-27T21:20:15.248Z,6.50
2018-11-27T21:22:43.276Z,6.50
2018-11-27T21:25:12.943Z,6.60
2018-11-27T21:27:41.168Z,6.50
2018-11-27T21:30:14.408Z,6.60
2018-11-27T21:32:42.548Z,6.60
2018-11-27T21:35:11.812Z,6.60
2018-11-27T21:37:39.878Z,6.60
2018-11-27T21:40:09.634Z,6.50
2018-11-27T21:42:37.562Z,6.50
2018-11-27T21:45:09.063Z,6.50
2018-11-27T21:47:37.030Z,6.50
2018-11-27T21:50:06.907Z,6.60
2018-11-27T21:52:34.820Z,6.50
2018-11-27T21:55:02.787Z,6.50
2018-11-27T21:57:30.740Z,6.50
2018-11-27T21:59:58.756Z,6.50
2018-11-27T22:02:26.676Z,6.50
2018-11-27T22:04:54.617Z,6.50
2018-11-27T22:07:22.552Z,6.50
2018-11-27T22:09:50.492Z,6.40
2018-11-27T22:12:18.435Z,6.50
2018-11-27T22:14:46.445Z,6.50
2018-11-27T22:17:14.416Z,6.50
2018-11-27T22:19:42.370Z,6.50
2018-11-27T22:22:10.575Z,6.50
2018-11-27T22:24:38.540Z,6.50
2018-11-27T22:27:06.551Z,6.40
2018-11-27T22:29:34.512Z,6.50
2018-11-27T22:32:02.444Z,6.50
2018-11-27T22:34:30.373Z,6.50
2018-11-27T22:36:58.302Z,6.40
2018-11-27T22:39:26.304Z,6.50
2018-11-27T22:41:54.252Z,6.40
2018-11-27T22:44:22.202Z,6.40
2018-11-27T22:46:50.095Z,6.40
2018-11-27T22:49:18.023Z,6.40
2018-11-27T22:51:46.017Z,6.40
2018-11-27T22:54:13.967Z,6.40
2018-11-27T22:56:41.908Z,6.40
2018-11-27T22:59:09.868Z,6.40
2018-11-27T23:01:37.820Z,6.40
2018-11-27T23:04:07.625Z,6.40
2018-11-27T23:06:36.021Z,6.40
2018-11-27T23:09:07.147Z,6.40
2018-11-27T23:11:35.344Z,6.50
2018-11-27T23:14:03.375Z,6.50
2018-11-27T23:16:31.380Z,6.50
2018-11-27T23:18:59.354Z,6.50
2018-11-27T23:21:27.319Z,6.50
2018-11-27T23:23:55.213Z,6.60
2018-11-27T23:26:23.208Z,6.50
2018-11-27T23:28:51.083Z,6.60
2018-11-27T23:31:19.029Z,6.60
2018-11-27T23:33:46.955Z,6.60
2018-11-27T23:36:14.868Z,6.60
2018-11-27T23:38:42.803Z,6.60
2018-11-27T23:41:10.734Z,6.70
2018-11-27T23:43:38.632Z,6.60
2018-11-27T23:46:06.589Z,6.60
2018-11-27T23:48:34.530Z,6.60
2018-11-27T23:51:02.524Z,6.60
2018-11-27T23:53:30.485Z,6.60
2018-11-27T23:55:58.468Z,6.50
2018-11-27T23:58:26.431Z,6.50
